Time;durP1;ratioP1;P1;durP2;ratioP2;P2;SDS_P1;SDS_P2;PMS_P1;PMS_P2;Temp;Humidity;BMP_temperature;BMP_pressure;BME280_temperature;BME280_humidity;BME280_pressure;Samples;Min_cycle;Max_cycle;Signal;HPM_P1;HPM_P2
2022/10/11 00:00:21;;;;;;;0.88;0.47;;;;;;;;;;4162323;28;20053;-39
2022/10/11 00:02:22;;;;;;;0.60;0.30;;;;;;;;;;4162716;28;20049;-38
2022/10/11 00:04:23;;;;;;;0.85;0.30;;;;;;;;;;4161424;28;20057;-39
2022/10/11 00:06:25;;;;;;;0.30;0.22;;;;;;;;;;4162220;28;20115;-38
2022/10/11 00:08:26;;;;;;;0.40;0.30;;;;;;;;;;4162341;28;20510;-39
2022/10/11 00:10:27;;;;;;;0.40;0.30;;;;;;;;;;4162150;28;20470;-39
2022/10/11 00:12:29;;;;;;;0.68;0.30;;;;;;;;;;4160466;28;20061;-39
2022/10/11 00:14:32;;;;;;;0.63;0.32;;;;;;;;;;4162174;28;20119;-39
2022/10/11 00:16:33;;;;;;;0.35;0.30;;;;;;;;;;4162285;28;20103;-38
2022/10/11 00:18:35;;;;;;;0.85;0.55;;;;;;;;;;4162341;28;20088;-39
2022/10/11 00:20:36;;;;;;;0.57;0.28;;;;;;;;;;4161572;28;20053;-39
2022/10/11 00:22:38;;;;;;;1.23;0.43;;;;;;;;;;4162633;28;20046;-39
2022/10/11 00:24:39;;;;;;;0.50;0.40;;;;;;;;;;4162053;28;20060;-38
2022/10/11 00:26:40;;;;;;;0.63;0.32;;;;;;;;;;4163396;28;20504;-39
2022/10/11 00:28:41;;;;;;;0.90;0.55;;;;;;;;;;4165390;28;20131;-39
2022/10/11 00:30:43;;;;;;;0.93;0.65;;;;;;;;;;4163807;28;20068;-39
2022/10/11 00:32:44;;;;;;;0.45;0.30;;;;;;;;;;4153132;28;20049;-39
2022/10/11 00:34:46;;;;;;;0.98;0.43;;;;;;;;;;4149483;28;20061;-38
2022/10/11 00:36:47;;;;;;;0.57;0.35;;;;;;;;;;4159072;28;20148;-38
2022/10/11 00:38:48;;;;;;;0.65;0.30;;;;;;;;;;4165201;28;20103;-39
2022/10/11 00:40:49;;;;;;;0.40;0.30;;;;;;;;;;4150522;28;20135;-39
2022/10/11 00:42:51;;;;;;;0.40;0.40;;;;;;;;;;4164996;28;20049;-39
2022/10/11 00:45:30;;;;;;;1.00;0.38;;;;;;;;;;4164950;28;20143;-39
2022/10/11 00:47:31;;;;;;;0.60;0.43;;;;;;;;;;4164939;28;20119;-39
2022/10/11 00:49:36;;;;;;;0.50;0.30;;;;;;;;;;4163333;28;20459;-39
2022/10/11 00:51:45;;;;;;;0.70;0.40;;;;;;;;;;4163429;28;20045;-38
2022/10/11 00:53:48;;;;;;;0.30;0.22;;;;;;;;;;4164497;28;20054;-39
2022/10/11 00:55:55;;;;;;;0.82;0.30;;;;;;;;;;4164876;28;20107;-39
2022/10/11 00:57:57;;;;;;;1.05;0.47;;;;;;;;;;4164805;28;20578;-39
2022/10/11 00:59:59;;;;;;;0.30;0.30;;;;;;;;;;4164741;28;20146;-39
2022/10/11 01:02:00;;;;;;;0.80;0.17;;;;;;;;;;4163187;28;20057;-39
2022/10/11 01:04:01;;;;;;;0.77;0.30;;;;;;;;;;4162743;28;20061;-39
2022/10/11 01:06:03;;;;;;;0.63;0.30;;;;;;;;;;4163031;28;20054;-39
2022/10/11 01:08:05;;;;;;;1.00;0.20;;;;;;;;;;4163388;28;20132;-38
2022/10/11 01:10:06;;;;;;;0.57;0.40;;;;;;;;;;4162643;28;20525;-39
2022/10/11 01:12:14;;;;;;;0.45;0.40;;;;;;;;;;4146880;28;20120;-39
2022/10/11 01:14:40;;;;;;;0.30;0.30;;;;;;;;;;4164543;28;20107;-38
2022/10/11 01:17:00;;;;;;;0.52;0.38;;;;;;;;;;4162809;28;20413;-39
2022/10/11 01:19:07;;;;;;;0.30;0.20;;;;;;;;;;4155819;28;20065;-38
2022/10/11 01:21:32;;;;;;;0.45;0.30;;;;;;;;;;4160163;28;20098;-39
2022/10/11 01:24:14;;;;;;;0.57;0.32;;;;;;;;;;4152897;28;20065;-39
2022/10/11 01:26:49;;;;;;;0.30;0.30;;;;;;;;;;4162880;28;20429;-39
2022/10/11 01:29:07;;;;;;;0.30;0.28;;;;;;;;;;4164351;28;20068;-39
2022/10/11 01:31:25;;;;;;;1.13;0.43;;;;;;;;;;4164199;28;20061;-38
2022/10/11 01:33:35;;;;;;;0.50;0.30;;;;;;;;;;4151520;28;20127;-39
2022/10/11 01:35:55;;;;;;;0.40;0.30;;;;;;;;;;4162635;28;20369;-39
2022/10/11 01:38:22;;;;;;;0.75;0.50;;;;;;;;;;4162169;28;20088;-39
2022/10/11 01:40:32;;;;;;;0.30;0.30;;;;;;;;;;4162851;28;20424;-39
2022/10/11 01:42:35;;;;;;;0.88;0.50;;;;;;;;;;4163262;28;20072;-39
2022/10/11 01:44:38;;;;;;;0.45;0.20;;;;;;;;;;4162350;28;20057;-39
2022/10/11 01:46:40;;;;;;;0.30;0.30;;;;;;;;;;4162921;28;20064;-39
2022/10/11 01:48:53;;;;;;;0.47;0.28;;;;;;;;;;4154727;28;20172;-39
2022/10/11 01:50:57;;;;;;;0.43;0.30;;;;;;;;;;4163701;28;20068;-39
2022/10/11 01:53:09;;;;;;;0.55;0.30;;;;;;;;;;4162651;28;20080;-39
2022/10/11 01:55:31;;;;;;;0.30;0.30;;;;;;;;;;4147181;28;20092;-39
2022/10/11 01:57:54;;;;;;;0.60;0.30;;;;;;;;;;4162598;28;20061;-39
2022/10/11 02:00:04;;;;;;;0.60;0.30;;;;;;;;;;4152098;28;20053;-39
2022/10/11 02:02:41;;;;;;;1.38;0.60;;;;;;;;;;4161713;28;20049;-39
2022/10/11 02:04:49;;;;;;;0.80;0.40;;;;;;;;;;4151577;28;20049;-39
2022/10/11 02:07:06;;;;;;;0.32;0.32;;;;;;;;;;4162446;28;20449;-39
2022/10/11 02:09:28;;;;;;;0.40;0.30;;;;;;;;;;4160799;28;20528;-39
2022/10/11 02:11:32;;;;;;;0.50;0.32;;;;;;;;;;4162601;28;20065;-39
2022/10/11 02:13:56;;;;;;;0.95;0.30;;;;;;;;;;4157129;28;20053;-39
2022/10/11 02:16:00;;;;;;;0.70;0.40;;;;;;;;;;4160728;28;20618;-38
2022/10/11 02:18:06;;;;;;;0.63;0.35;;;;;;;;;;4162757;28;20107;-38
2022/10/11 02:20:12;;;;;;;0.73;0.55;;;;;;;;;;4161345;28;20061;-39
2022/10/11 02:22:27;;;;;;;0.30;0.20;;;;;;;;;;4163290;28;20342;-40
2022/10/11 02:24:31;;;;;;;0.73;0.50;;;;;;;;;;4163260;28;20091;-39
2022/10/11 02:26:32;;;;;;;1.00;0.57;;;;;;;;;;4162161;28;20309;-39
2022/10/11 02:28:35;;;;;;;0.73;0.40;;;;;;;;;;4162205;28;20079;-39
2022/10/11 02:30:39;;;;;;;1.17;0.32;;;;;;;;;;4161848;28;20152;-39
2022/10/11 02:32:42;;;;;;;0.65;0.20;;;;;;;;;;4163096;28;20053;-38
2022/10/11 02:34:49;;;;;;;0.20;0.20;;;;;;;;;;4144851;28;20053;-39
2022/10/11 02:36:58;;;;;;;0.75;0.40;;;;;;;;;;4156321;28;20062;-39
2022/10/11 02:39:05;;;;;;;1.00;0.70;;;;;;;;;;4162937;28;20060;-38
2022/10/11 02:41:16;;;;;;;0.73;0.40;;;;;;;;;;4162025;28;20061;-38
2022/10/11 02:43:28;;;;;;;0.57;0.50;;;;;;;;;;4155666;28;20053;-39
2022/10/11 02:45:42;;;;;;;0.47;0.30;;;;;;;;;;4161682;28;20064;-39
2022/10/11 02:47:43;;;;;;;0.47;0.30;;;;;;;;;;4151402;28;20552;-38
2022/10/11 02:49:45;;;;;;;0.50;0.40;;;;;;;;;;4160276;28;20061;-39
2022/10/11 02:51:46;;;;;;;0.60;0.40;;;;;;;;;;4158715;28;20054;-38
2022/10/11 02:53:47;;;;;;;0.40;0.40;;;;;;;;;;4162641;28;20049;-39
2022/10/11 02:55:50;;;;;;;0.30;0.22;;;;;;;;;;4162953;28;20060;-39
2022/10/11 02:57:52;;;;;;;0.20;0.20;;;;;;;;;;4161764;28;20126;-39
2022/10/11 02:59:53;;;;;;;0.60;0.30;;;;;;;;;;4157639;28;20054;-38
2022/10/11 03:01:54;;;;;;;0.35;0.30;;;;;;;;;;4162777;28;20392;-39
2022/10/11 03:03:55;;;;;;;0.68;0.35;;;;;;;;;;4162136;28;20053;-39
2022/10/11 03:05:59;;;;;;;0.60;0.30;;;;;;;;;;4161758;28;20107;-38
2022/10/11 03:08:00;;;;;;;0.55;0.40;;;;;;;;;;4161572;28;20053;-39
2022/10/11 03:10:01;;;;;;;0.40;0.30;;;;;;;;;;4162639;28;20099;-39
2022/10/11 03:12:04;;;;;;;0.55;0.30;;;;;;;;;;4150299;28;20054;-39
2022/10/11 03:14:05;;;;;;;0.30;0.25;;;;;;;;;;4162448;28;20436;-39
2022/10/11 03:16:07;;;;;;;0.40;0.30;;;;;;;;;;4161417;28;20049;-39
2022/10/11 03:18:08;;;;;;;0.68;0.30;;;;;;;;;;4162728;28;20057;-40
2022/10/11 03:20:09;;;;;;;0.50;0.40;;;;;;;;;;4162443;28;20110;-39
2022/10/11 03:22:11;;;;;;;0.40;0.30;;;;;;;;;;4163086;28;20551;-39
2022/10/11 03:24:12;;;;;;;0.30;0.20;;;;;;;;;;4162609;28;20107;-39
2022/10/11 03:26:13;;;;;;;0.30;0.30;;;;;;;;;;4162642;28;20451;-39
2022/10/11 03:28:14;;;;;;;0.32;0.20;;;;;;;;;;4162328;28;20061;-38
2022/10/11 03:30:16;;;;;;;0.55;0.30;;;;;;;;;;4162520;28;20145;-39
2022/10/11 03:32:17;;;;;;;0.40;0.20;;;;;;;;;;4161436;28;20053;-38
2022/10/11 03:34:19;;;;;;;0.98;0.47;;;;;;;;;;4162178;28;20049;-39
2022/10/11 03:36:21;;;;;;;0.28;0.28;;;;;;;;;;4162206;28;20053;-39
2022/10/11 03:38:22;;;;;;;0.85;0.40;;;;;;;;;;4162452;28;20057;-39
2022/10/11 03:40:24;;;;;;;0.40;0.35;;;;;;;;;;4162647;28;20053;-39
2022/10/11 03:42:26;;;;;;;0.32;0.30;;;;;;;;;;4162913;28;20061;-39
2022/10/11 03:44:27;;;;;;;0.20;0.20;;;;;;;;;;4162140;28;20119;-39
2022/10/11 03:46:28;;;;;;;0.20;0.20;;;;;;;;;;4162699;28;20061;-39
2022/10/11 03:48:30;;;;;;;0.38;0.30;;;;;;;;;;4162675;28;20062;-39
2022/10/11 03:50:31;;;;;;;0.30;0.30;;;;;;;;;;4162176;28;20053;-39
2022/10/11 03:52:33;;;;;;;0.40;0.20;;;;;;;;;;4162405;28;20050;-39
2022/10/11 03:54:34;;;;;;;0.65;0.40;;;;;;;;;;4162305;28;20123;-38
2022/10/11 03:56:36;;;;;;;0.25;0.25;;;;;;;;;;4162149;28;20108;-39
2022/10/11 03:58:37;;;;;;;0.60;0.30;;;;;;;;;;4161240;28;20061;-39
2022/10/11 04:00:38;;;;;;;0.40;0.22;;;;;;;;;;4163429;28;20417;-39
2022/10/11 04:02:40;;;;;;;0.25;0.25;;;;;;;;;;4165674;28;20053;-39
2022/10/11 04:04:41;;;;;;;0.52;0.30;;;;;;;;;;4165391;28;20115;-39
2022/10/11 04:06:42;;;;;;;0.60;0.40;;;;;;;;;;4165415;28;20053;-39
2022/10/11 04:08:44;;;;;;;0.30;0.25;;;;;;;;;;4165409;28;20595;-39
2022/10/11 04:10:47;;;;;;;0.45;0.45;;;;;;;;;;4165357;28;20057;-39
2022/10/11 04:12:48;;;;;;;0.30;0.30;;;;;;;;;;4165393;28;20058;-39
2022/10/11 04:14:49;;;;;;;0.40;0.30;;;;;;;;;;4165623;28;20053;-39
2022/10/11 04:16:51;;;;;;;0.80;0.52;;;;;;;;;;4165308;28;20131;-39
2022/10/11 04:18:52;;;;;;;0.35;0.35;;;;;;;;;;4164824;28;20053;-39
2022/10/11 04:20:54;;;;;;;0.55;0.32;;;;;;;;;;4152248;28;20099;-39
2022/10/11 04:22:55;;;;;;;0.50;0.30;;;;;;;;;;4165250;28;20053;-39
2022/10/11 04:24:57;;;;;;;0.55;0.40;;;;;;;;;;4163870;28;20413;-38
2022/10/11 04:26:58;;;;;;;0.82;0.47;;;;;;;;;;4165356;28;20516;-39
2022/10/11 04:28:59;;;;;;;0.63;0.40;;;;;;;;;;4164734;28;20053;-39
2022/10/11 04:31:03;;;;;;;0.55;0.30;;;;;;;;;;4163869;28;20192;-39
2022/10/11 04:33:04;;;;;;;0.63;0.43;;;;;;;;;;4165211;28;20115;-39
2022/10/11 04:35:05;;;;;;;0.60;0.30;;;;;;;;;;4155152;28;20069;-39
2022/10/11 04:37:06;;;;;;;1.88;0.50;;;;;;;;;;4161062;28;20119;-39
2022/10/11 04:39:08;;;;;;;0.40;0.30;;;;;;;;;;4164966;28;20112;-39
2022/10/11 04:41:12;;;;;;;0.20;0.20;;;;;;;;;;4163877;28;20060;-38
2022/10/11 04:43:15;;;;;;;0.70;0.60;;;;;;;;;;4165028;28;20049;-39
2022/10/11 04:45:16;;;;;;;0.93;0.43;;;;;;;;;;4165132;28;20084;-39
2022/10/11 04:47:18;;;;;;;0.50;0.30;;;;;;;;;;4163311;28;20496;-39
2022/10/11 04:49:19;;;;;;;0.73;0.40;;;;;;;;;;4152777;28;20269;-39
2022/10/11 04:51:20;;;;;;;0.20;0.20;;;;;;;;;;4165010;28;20107;-39
2022/10/11 04:53:22;;;;;;;0.75;0.38;;;;;;;;;;4164874;28;20053;-39
2022/10/11 04:55:23;;;;;;;0.85;0.40;;;;;;;;;;4163142;28;20061;-38
2022/10/11 04:57:25;;;;;;;0.90;0.40;;;;;;;;;;4163546;28;20057;-38
2022/10/11 04:59:26;;;;;;;0.43;0.30;;;;;;;;;;4164927;28;20057;-39
2022/10/11 05:01:27;;;;;;;0.50;0.28;;;;;;;;;;4161877;28;20455;-39
2022/10/11 05:03:29;;;;;;;0.57;0.40;;;;;;;;;;4162679;28;20080;-39
2022/10/11 05:05:30;;;;;;;0.43;0.40;;;;;;;;;;4161982;28;20061;-39
2022/10/11 05:07:32;;;;;;;0.60;0.38;;;;;;;;;;4163196;28;20049;-39
2022/10/11 05:09:33;;;;;;;0.70;0.38;;;;;;;;;;4162581;28;20358;-39
2022/10/11 05:11:34;;;;;;;0.63;0.30;;;;;;;;;;4160844;28;20061;-39
2022/10/11 05:13:36;;;;;;;1.17;0.30;;;;;;;;;;4161390;28;20050;-39
2022/10/11 05:15:37;;;;;;;0.40;0.30;;;;;;;;;;4162578;28;20057;-39
2022/10/11 05:17:39;;;;;;;0.88;0.38;;;;;;;;;;4161209;28;20076;-39
2022/10/11 05:19:40;;;;;;;0.73;0.40;;;;;;;;;;4143929;28;20108;-39
2022/10/11 05:21:41;;;;;;;0.45;0.30;;;;;;;;;;4162116;28;20057;-39
2022/10/11 05:23:44;;;;;;;0.65;0.38;;;;;;;;;;4162285;28;20053;-39
2022/10/11 05:25:45;;;;;;;0.40;0.40;;;;;;;;;;4161994;28;20262;-39
2022/10/11 05:27:46;;;;;;;0.50;0.30;;;;;;;;;;4162313;28;20080;-39
2022/10/11 05:29:48;;;;;;;0.32;0.20;;;;;;;;;;4162080;28;20572;-39
2022/10/11 05:31:49;;;;;;;0.47;0.47;;;;;;;;;;4162529;28;20057;-39
2022/10/11 05:33:50;;;;;;;0.30;0.30;;;;;;;;;;4162025;28;20069;-39
2022/10/11 05:35:51;;;;;;;0.40;0.30;;;;;;;;;;4162319;28;20065;-39
2022/10/11 05:37:53;;;;;;;0.65;0.40;;;;;;;;;;4160317;28;20061;-39
2022/10/11 05:39:54;;;;;;;0.40;0.30;;;;;;;;;;4160264;28;20120;-38
2022/10/11 05:41:56;;;;;;;0.50;0.25;;;;;;;;;;4159542;28;20060;-38
2022/10/11 05:43:57;;;;;;;0.47;0.30;;;;;;;;;;4160300;28;20057;-38
2022/10/11 05:45:58;;;;;;;0.47;0.38;;;;;;;;;;4161801;28;20779;-38
2022/10/11 05:47:59;;;;;;;0.57;0.40;;;;;;;;;;4159308;28;20061;-38
2022/10/11 05:50:01;;;;;;;1.05;0.38;;;;;;;;;;4159838;28;20457;-38
2022/10/11 05:52:02;;;;;;;0.55;0.30;;;;;;;;;;4155620;28;20049;-38
2022/10/11 05:54:03;;;;;;;0.40;0.30;;;;;;;;;;4156395;28;20061;-39
2022/10/11 05:56:17;;;;;;;0.25;0.20;;;;;;;;;;4155838;28;20532;-38
2022/10/11 05:58:18;;;;;;;0.30;0.20;;;;;;;;;;4158404;28;20381;-38
2022/10/11 06:00:20;;;;;;;0.30;0.28;;;;;;;;;;4158308;28;20324;-38
2022/10/11 06:02:21;;;;;;;0.40;0.40;;;;;;;;;;4152999;28;20095;-38
2022/10/11 06:04:22;;;;;;;0.50;0.30;;;;;;;;;;4150393;28;20218;-38
2022/10/11 06:06:24;;;;;;;2.92;0.20;;;;;;;;;;4151180;28;20076;-39
2022/10/11 06:08:25;;;;;;;0.35;0.20;;;;;;;;;;4149874;28;20131;-39
2022/10/11 06:10:27;;;;;;;0.60;0.30;;;;;;;;;;4151578;28;20049;-37
2022/10/11 06:12:29;;;;;;;0.77;0.20;;;;;;;;;;4141197;28;20103;-39
2022/10/11 06:14:31;;;;;;;0.65;0.40;;;;;;;;;;4146055;28;20057;-39
2022/10/11 06:16:32;;;;;;;0.45;0.30;;;;;;;;;;4152977;28;20150;-38
2022/10/11 06:18:34;;;;;;;1.80;0.20;;;;;;;;;;4147891;28;20057;-38
2022/10/11 06:20:35;;;;;;;4.18;0.30;;;;;;;;;;4146692;28;20068;-38
2022/10/11 06:22:37;;;;;;;0.28;0.20;;;;;;;;;;4140605;28;20057;-39
2022/10/11 06:24:38;;;;;;;0.35;0.30;;;;;;;;;;4145553;28;20057;-38
2022/10/11 06:26:39;;;;;;;0.45;0.25;;;;;;;;;;4148168;28;20064;-38
2022/10/11 06:28:41;;;;;;;0.47;0.28;;;;;;;;;;4142439;28;20107;-38
2022/10/11 06:30:43;;;;;;;0.65;0.30;;;;;;;;;;4137728;28;21974;-38
2022/10/11 06:32:44;;;;;;;0.55;0.40;;;;;;;;;;4135163;28;20195;-39
2022/10/11 06:34:45;;;;;;;0.60;0.32;;;;;;;;;;4136441;28;20053;-38
2022/10/11 06:36:47;;;;;;;0.32;0.20;;;;;;;;;;4139672;28;20975;-39
2022/10/11 06:38:51;;;;;;;1.00;0.30;;;;;;;;;;4141529;28;20635;-39
2022/10/11 06:40:52;;;;;;;0.63;0.35;;;;;;;;;;4139772;28;20245;-39
2022/10/11 06:42:53;;;;;;;0.63;0.20;;;;;;;;;;4146722;28;20215;-39
2022/10/11 06:44:55;;;;;;;1.42;0.25;;;;;;;;;;4143616;28;20057;-38
2022/10/11 06:46:56;;;;;;;2.67;0.38;;;;;;;;;;4141601;28;20378;-38
2022/10/11 06:48:58;;;;;;;2.42;0.20;;;;;;;;;;4145465;28;20057;-39
2022/10/11 06:50:59;;;;;;;1.15;0.20;;;;;;;;;;4143052;28;20053;-38
2022/10/11 06:53:01;;;;;;;2.17;0.40;;;;;;;;;;4136872;28;20057;-39
2022/10/11 06:55:03;;;;;;;3.67;0.30;;;;;;;;;;4139858;28;20057;-38
2022/10/11 06:57:04;;;;;;;0.10;0.10;;;;;;;;;;4145226;28;20064;-38
2022/10/11 06:59:06;;;;;;;1.95;0.38;;;;;;;;;;4142978;28;20127;-38
2022/10/11 07:01:10;;;;;;;0.70;0.50;;;;;;;;;;4134721;28;20519;-39
2022/10/11 07:03:11;;;;;;;1.63;0.30;;;;;;;;;;4134691;28;20502;-39
2022/10/11 07:05:12;;;;;;;0.43;0.20;;;;;;;;;;4138929;28;20057;-38
2022/10/11 07:07:13;;;;;;;0.95;0.45;;;;;;;;;;4132447;28;20058;-38
2022/10/11 07:09:15;;;;;;;0.30;0.20;;;;;;;;;;4135744;28;20053;-40
2022/10/11 07:11:19;;;;;;;1.27;0.30;;;;;;;;;;4129604;28;20158;-39
2022/10/11 07:13:20;;;;;;;2.17;0.43;;;;;;;;;;4130671;28;20489;-40
2022/10/11 07:15:22;;;;;;;0.77;0.40;;;;;;;;;;4134920;28;20107;-41
2022/10/11 07:17:24;;;;;;;2.80;0.30;;;;;;;;;;4144715;28;20575;-39
2022/10/11 07:19:25;;;;;;;0.85;0.22;;;;;;;;;;4136371;28;20175;-40
2022/10/11 07:21:28;;;;;;;2.42;0.40;;;;;;;;;;4143158;28;20653;-40
2022/10/11 07:23:30;;;;;;;0.73;0.40;;;;;;;;;;4133233;28;20061;-42
2022/10/11 07:25:32;;;;;;;0.73;0.25;;;;;;;;;;4137183;28;20061;-41
2022/10/11 07:27:33;;;;;;;1.58;0.40;;;;;;;;;;4134537;28;20057;-40
2022/10/11 07:29:34;;;;;;;2.50;0.30;;;;;;;;;;4139333;28;20547;-40
2022/10/11 07:31:37;;;;;;;2.17;0.22;;;;;;;;;;4132607;28;20061;-41
2022/10/11 07:33:38;;;;;;;1.95;0.20;;;;;;;;;;4126539;28;20062;-42
2022/10/11 07:35:40;;;;;;;2.75;0.40;;;;;;;;;;4134432;28;20057;-40
2022/10/11 07:37:41;;;;;;;0.50;0.30;;;;;;;;;;4139087;28;20513;-41
2022/10/11 07:39:43;;;;;;;0.47;0.17;;;;;;;;;;4138144;28;20057;-41
2022/10/11 07:41:44;;;;;;;0.65;0.32;;;;;;;;;;4146577;28;20746;-41
2022/10/11 07:43:48;;;;;;;0.40;0.20;;;;;;;;;;4143293;28;20369;-41
2022/10/11 07:45:54;;;;;;;5.35;0.40;;;;;;;;;;4137889;28;20064;-40
2022/10/11 07:47:55;;;;;;;1.65;0.35;;;;;;;;;;4134102;28;20123;-38
2022/10/11 07:49:56;;;;;;;3.17;0.50;;;;;;;;;;4139563;28;20057;-39
2022/10/11 07:51:58;;;;;;;0.40;0.30;;;;;;;;;;4130116;28;20053;-40
2022/10/11 07:53:59;;;;;;;2.90;0.50;;;;;;;;;;4132528;28;20061;-39
2022/10/11 07:56:01;;;;;;;0.75;0.30;;;;;;;;;;4138278;28;20791;-39
2022/10/11 07:58:02;;;;;;;3.22;1.25;;;;;;;;;;4132957;28;20477;-39
2022/10/11 08:00:04;;;;;;;0.70;0.47;;;;;;;;;;4135896;28;20061;-39
2022/10/11 08:02:13;;;;;;;2.33;0.50;;;;;;;;;;4130977;28;20075;-39
2022/10/11 08:04:15;;;;;;;1.55;0.55;;;;;;;;;;4134596;28;20079;-38
2022/10/11 08:06:18;;;;;;;0.70;0.50;;;;;;;;;;4150741;28;20056;-37
2022/10/11 08:08:19;;;;;;;1.77;0.45;;;;;;;;;;4135701;28;20061;-38
2022/10/11 08:10:21;;;;;;;2.13;0.50;;;;;;;;;;4142027;28;20057;-38
2022/10/11 08:12:41;;;;;;;;;;;;;;;;;;4137301;28;20469;-37
2022/10/11 08:14:42;;;;;;;1.50;0.35;;;;;;;;;;4134983;28;19978;-38
2022/10/11 08:16:43;;;;;;;2.35;0.32;;;;;;;;;;4138855;28;20062;-38
2022/10/11 08:18:45;;;;;;;1.23;0.30;;;;;;;;;;4140225;28;20064;-37
2022/10/11 08:20:47;;;;;;;2.92;0.40;;;;;;;;;;4144062;28;20053;-39
2022/10/11 08:22:48;;;;;;;1.08;0.40;;;;;;;;;;4134277;28;20405;-38
2022/10/11 08:24:49;;;;;;;0.82;0.38;;;;;;;;;;4141951;28;20441;-38
2022/10/11 08:26:51;;;;;;;1.02;0.43;;;;;;;;;;4142589;28;20064;-39
2022/10/11 08:28:52;;;;;;;0.43;0.20;;;;;;;;;;4133599;28;20824;-41
2022/10/11 08:30:54;;;;;;;0.70;0.45;;;;;;;;;;4141529;28;20371;-38
2022/10/11 08:32:55;;;;;;;0.17;0.10;;;;;;;;;;4134124;28;20521;-39
2022/10/11 08:34:56;;;;;;;0.57;0.30;;;;;;;;;;4114851;28;20898;-38
2022/10/11 08:36:57;;;;;;;0.63;0.40;;;;;;;;;;4133746;28;20547;-39
2022/10/11 08:38:59;;;;;;;2.42;0.40;;;;;;;;;;4131282;28;20497;-38
2022/10/11 08:41:01;;;;;;;0.82;0.40;;;;;;;;;;4139414;28;20207;-38
2022/10/11 08:43:05;;;;;;;0.65;0.47;;;;;;;;;;4136506;28;20091;-39
2022/10/11 08:45:09;;;;;;;1.00;0.30;;;;;;;;;;4121057;28;21129;-38
2022/10/11 08:47:20;;;;;;;3.05;0.50;;;;;;;;;;4120956;28;20054;-38
2022/10/11 08:49:26;;;;;;;5.15;0.68;;;;;;;;;;4136224;28;20076;-39
2022/10/11 08:51:30;;;;;;;2.45;0.43;;;;;;;;;;4125406;28;20675;-39
2022/10/11 08:53:53;;;;;;;0.50;0.30;;;;;;;;;;4134229;28;20053;-38
2022/10/11 08:55:54;;;;;;;1.25;0.60;;;;;;;;;;4128237;28;20150;-39
2022/10/11 08:57:56;;;;;;;0.93;0.52;;;;;;;;;;4131832;28;21078;-39
2022/10/11 09:00:00;;;;;;;1.25;0.50;;;;;;;;;;4129082;28;20668;-39
2022/10/11 09:02:12;;;;;;;2.20;0.50;;;;;;;;;;4130281;28;20091;-38
2022/10/11 09:04:15;;;;;;;3.55;0.57;;;;;;;;;;4137882;28;20449;-38
2022/10/11 09:06:20;;;;;;;1.75;0.40;;;;;;;;;;4134531;28;20049;-39
2022/10/11 09:08:32;;;;;;;1.73;0.60;;;;;;;;;;4135443;28;20368;-38
2022/10/11 09:10:39;;;;;;;2.75;0.50;;;;;;;;;;4135292;28;20477;-38
2022/10/11 09:13:03;;;;;;;1.65;0.60;;;;;;;;;;4141660;28;20151;-39
2022/10/11 09:15:15;;;;;;;1.60;0.70;;;;;;;;;;4133554;28;20057;-39
2022/10/11 09:17:30;;;;;;;2.83;0.50;;;;;;;;;;4123802;28;20448;-38
2022/10/11 09:19:45;;;;;;;1.13;0.57;;;;;;;;;;4126990;28;20100;-38
2022/10/11 09:22:17;;;;;;;3.47;0.60;;;;;;;;;;4128886;28;20068;-40
2022/10/11 09:24:29;;;;;;;1.10;0.55;;;;;;;;;;4138679;28;21434;-39
2022/10/11 09:26:53;;;;;;;2.28;0.63;;;;;;;;;;4137068;28;20347;-40
2022/10/11 09:29:10;;;;;;;1.08;0.60;;;;;;;;;;4140293;28;20111;-38
2022/10/11 09:31:12;;;;;;;0.85;0.60;;;;;;;;;;4135189;28;20061;-39
2022/10/11 09:33:18;;;;;;;2.40;0.80;;;;;;;;;;4132253;28;20050;-39
2022/10/11 09:35:21;;;;;;;2.55;0.52;;;;;;;;;;4130351;28;20062;-38
2022/10/11 09:37:29;;;;;;;1.52;0.50;;;;;;;;;;4125025;28;21710;-38
2022/10/11 09:39:33;;;;;;;1.60;0.57;;;;;;;;;;4122952;28;20812;-39
2022/10/11 09:41:44;;;;;;;2.10;0.45;;;;;;;;;;4122531;28;21032;-39
2022/10/11 09:43:50;;;;;;;1.60;0.52;;;;;;;;;;4123057;28;20069;-39
2022/10/11 09:45:51;;;;;;;3.97;0.80;;;;;;;;;;4138600;28;20127;-39
2022/10/11 09:47:55;;;;;;;0.63;0.40;;;;;;;;;;4141227;28;20671;-39
2022/10/11 09:50:00;;;;;;;1.35;0.55;;;;;;;;;;4139811;28;20081;-39
2022/10/11 09:52:03;;;;;;;1.52;0.57;;;;;;;;;;4142826;28;20131;-38
2022/10/11 09:54:05;;;;;;;4.20;0.63;;;;;;;;;;4143138;28;20722;-39
2022/10/11 09:56:06;;;;;;;0.70;0.30;;;;;;;;;;4144685;28;20058;-39
2022/10/11 09:58:30;;;;;;;2.45;0.50;;;;;;;;;;4133622;28;20914;-38
2022/10/11 10:00:32;;;;;;;2.50;0.52;;;;;;;;;;4141560;28;20475;-39
2022/10/11 10:02:47;;;;;;;0.98;0.52;;;;;;;;;;4142153;28;20503;-39
2022/10/11 10:04:59;;;;;;;1.00;0.32;;;;;;;;;;4141177;28;20053;-40
2022/10/11 10:07:11;;;;;;;2.38;0.50;;;;;;;;;;4138422;28;20061;-39
2022/10/11 10:09:28;;;;;;;0.88;0.32;;;;;;;;;;4126502;28;20100;-40
2022/10/11 10:11:35;;;;;;;0.45;0.30;;;;;;;;;;4129499;28;20139;-39
2022/10/11 10:13:45;;;;;;;1.27;0.60;;;;;;;;;;4137372;28;20049;-40
2022/10/11 10:15:49;;;;;;;1.65;0.60;;;;;;;;;;4145372;28;20409;-39
2022/10/11 10:17:52;;;;;;;1.13;0.40;;;;;;;;;;4141849;28;20064;-39
2022/10/11 10:19:54;;;;;;;0.63;0.28;;;;;;;;;;4129679;28;20050;-38
2022/10/11 10:21:56;;;;;;;0.93;0.40;;;;;;;;;;4137416;28;20695;-38
2022/10/11 10:24:01;;;;;;;1.10;0.30;;;;;;;;;;4143657;28;20475;-39
2022/10/11 10:26:16;;;;;;;1.08;0.40;;;;;;;;;;4143008;28;20053;-38
2022/10/11 10:28:24;;;;;;;0.50;0.30;;;;;;;;;;4130462;28;20049;-39
2022/10/11 10:30:26;;;;;;;1.15;0.47;;;;;;;;;;4143221;28;20972;-38
2022/10/11 10:32:44;;;;;;;1.33;0.50;;;;;;;;;;4142978;28;20053;-38
2022/10/11 10:35:24;;;;;;;0.40;0.30;;;;;;;;;;4132202;28;20057;-39
2022/10/11 10:37:26;;;;;;;1.05;0.40;;;;;;;;;;4128709;28;20123;-39
2022/10/11 10:39:29;;;;;;;1.35;0.40;;;;;;;;;;4134818;28;20150;-38
2022/10/11 10:41:32;;;;;;;3.40;0.45;;;;;;;;;;4144432;28;20107;-38
2022/10/11 10:43:35;;;;;;;1.00;0.50;;;;;;;;;;4134822;28;20042;-40
2022/10/11 10:45:58;;;;;;;1.00;0.50;;;;;;;;;;4128926;28;20570;-39
2022/10/11 10:48:18;;;;;;;1.77;0.43;;;;;;;;;;4134962;28;20061;-39
2022/10/11 10:50:48;;;;;;;0.75;0.30;;;;;;;;;;4130325;28;20073;-40
2022/10/11 10:53:10;;;;;;;1.45;0.60;;;;;;;;;;4134226;28;20061;-38
2022/10/11 10:55:20;;;;;;;3.08;0.38;;;;;;;;;;4117454;28;20088;-40
2022/10/11 10:57:24;;;;;;;1.83;0.47;;;;;;;;;;4134297;28;20053;-39
2022/10/11 10:59:35;;;;;;;2.15;0.30;;;;;;;;;;4122153;28;20058;-39
2022/10/11 11:01:48;;;;;;;0.60;0.30;;;;;;;;;;4132470;28;20061;-38
2022/10/11 11:04:26;;;;;;;1.73;0.43;;;;;;;;;;4135433;28;20091;-39
2022/10/11 11:06:42;;;;;;;3.15;0.30;;;;;;;;;;4130497;28;20066;-39
2022/10/11 11:08:53;;;;;;;1.25;0.40;;;;;;;;;;4129959;28;20061;-39
2022/10/11 11:11:03;;;;;;;;;;;;;;;;;;4133824;28;20057;-39
2022/10/11 11:13:13;;;;;;;;;;;;;;;;;;4134783;28;19951;-38
2022/10/11 11:15:29;;;;;;;0.45;0.38;;;;;;;;;;4123836;28;19929;-39
2022/10/11 11:17:42;;;;;;;1.77;0.20;;;;;;;;;;4131286;28;21081;-38
2022/10/11 11:20:16;;;;;;;1.55;0.50;;;;;;;;;;4142301;28;20632;-39
2022/10/11 11:22:33;;;;;;;1.35;0.40;;;;;;;;;;4143086;28;20053;-38
2022/10/11 11:24:53;;;;;;;0.30;0.20;;;;;;;;;;4136457;28;20053;-39
2022/10/11 11:27:03;;;;;;;1.55;0.40;;;;;;;;;;4145023;28;20460;-39
2022/10/11 11:29:22;;;;;;;0.45;0.22;;;;;;;;;;4136362;28;20076;-42
2022/10/11 11:31:43;;;;;;;0.38;0.20;;;;;;;;;;4138517;28;20062;-40
2022/10/11 11:33:54;;;;;;;0.80;0.30;;;;;;;;;;4131757;28;20131;-39
2022/10/11 11:36:01;;;;;;;1.48;0.30;;;;;;;;;;4144244;28;20057;-39
2022/10/11 11:38:16;;;;;;;0.55;0.22;;;;;;;;;;4142524;28;20080;-39
2022/10/11 11:40:23;;;;;;;0.77;0.30;;;;;;;;;;4146221;28;20050;-38
2022/10/11 11:42:44;;;;;;;1.65;0.43;;;;;;;;;;4140231;28;20389;-38
2022/10/11 11:44:48;;;;;;;1.80;0.30;;;;;;;;;;4139709;28;20127;-38
2022/10/11 11:46:55;;;;;;;0.77;0.30;;;;;;;;;;4138703;28;20057;-40
2022/10/11 11:48:59;;;;;;;0.50;0.30;;;;;;;;;;4131168;28;20057;-39
2022/10/11 11:51:20;;;;;;;0.82;0.38;;;;;;;;;;4136911;28;20682;-39
2022/10/11 11:53:34;;;;;;;0.82;0.30;;;;;;;;;;4137529;28;20057;-39
2022/10/11 11:55:50;;;;;;;1.08;0.40;;;;;;;;;;4142010;28;20057;-39
2022/10/11 11:57:58;;;;;;;0.77;0.20;;;;;;;;;;4143584;28;20529;-39
2022/10/11 12:00:13;;;;;;;0.28;0.10;;;;;;;;;;4145791;28;20127;-39
2022/10/11 12:02:17;;;;;;;0.73;0.22;;;;;;;;;;4126852;28;20109;-39
2022/10/11 12:04:27;;;;;;;1.20;0.20;;;;;;;;;;4139962;28;20111;-39
2022/10/11 12:06:33;;;;;;;1.90;0.20;;;;;;;;;;4145917;28;20057;-40
2022/10/11 12:08:35;;;;;;;0.85;0.20;;;;;;;;;;4142334;28;20053;-39
2022/10/11 12:10:52;;;;;;;1.73;0.38;;;;;;;;;;4136751;28;20119;-40
2022/10/11 12:13:14;;;;;;;2.08;0.20;;;;;;;;;;4142117;28;20637;-40
2022/10/11 12:15:25;;;;;;;1.02;0.38;;;;;;;;;;4135600;28;20112;-40
2022/10/11 12:17:27;;;;;;;1.40;0.28;;;;;;;;;;4133432;28;20084;-39
2022/10/11 12:19:28;;;;;;;0.28;0.13;;;;;;;;;;4145105;28;20092;-39
2022/10/11 12:21:36;;;;;;;1.05;0.20;;;;;;;;;;4142596;28;20057;-39
2022/10/11 12:23:41;;;;;;;0.77;0.45;;;;;;;;;;4147564;28;20489;-40
2022/10/11 12:25:42;;;;;;;0.95;0.30;;;;;;;;;;4144894;28;20054;-39
2022/10/11 12:27:46;;;;;;;0.28;0.20;;;;;;;;;;4142173;28;20390;-39
2022/10/11 12:29:49;;;;;;;0.88;0.20;;;;;;;;;;4144355;28;20057;-39
2022/10/11 12:32:30;;;;;;;0.30;0.17;;;;;;;;;;4144987;28;20134;-38
2022/10/11 12:34:35;;;;;;;0.52;0.20;;;;;;;;;;4148359;28;20049;-39